Terminal Aerodrome Forecast
Issued by NWS

Home | Current Version | Previous Version | Graphics & Text | Print | Product List | Glossary On
Versions: 1 2 3 4 5 6 7 8 9 10 11 12 13 14 15 16 17 18
000
FTUS42 KMHX 170326 AAA
TAFISO
TAF AMD
KISO 170326Z 1703/1724 VRB03KT P6SM OVC012
      TEMPO 1704/1707 5SM BR OVC009
     FM170700 00000KT 5SM BR OVC009
     FM171700 23006KT P6SM BKN015
     FM172000 22006KT P6SM BKN100
      AMD LTD TO CLD VIS AND WIND=

USA.gov is the U.S. government's official web portal to all federal, state and local government web resources and services.